Time;durP1;ratioP1;P1;durP2;ratioP2;P2;SDS_P1;SDS_P2;PMS_P1;PMS_P2;Temp;Humidity;BMP_temperature;BMP_pressure;BME280_temperature;BME280_humidity;BME280_pressure;Samples;Min_cycle;Max_cycle;Signal;HPM_P1;HPM_P2
2022/12/09 00:01:24;;;;;;;27.60;16.25;;;3.00;99.90;;;;;;5104314;28;20211;-87
2022/12/09 00:03:49;;;;;;;32.80;18.23;;;3.00;99.90;;;;;;5108015;28;20245;-86
2022/12/09 00:06:18;;;;;;;26.17;16.60;;;3.00;99.90;;;;;;5106448;28;20623;-87
2022/12/09 00:08:44;;;;;;;30.35;17.10;;;2.90;99.90;;;;;;5094879;28;20191;-87
2022/12/09 00:11:10;;;;;;;25.30;16.60;;;2.90;99.90;;;;;;5101760;28;20528;-87
2022/12/09 00:13:35;;;;;;;28.10;17.60;;;2.90;1.00;;;;;;5109295;28;20193;-88
2022/12/09 00:16:12;;;;;;;24.70;16.50;;;2.90;1.00;;;;;;5102220;28;20901;-86
2022/12/09 00:18:38;;;;;;;29.33;16.80;;;2.90;1.00;;;;;;5102511;28;20449;-87
2022/12/09 00:21:24;;;;;;;29.40;17.70;;;2.80;1.00;;;;;;5105397;27;20203;-87
2022/12/09 00:23:50;;;;;;;28.20;18.50;;;2.80;1.00;;;;;;5106450;28;20215;-87
2022/12/09 00:26:17;;;;;;;27.80;16.92;;;2.80;1.00;;;;;;5104749;28;20305;-87
2022/12/09 00:28:42;;;;;;;26.73;17.48;;;2.70;1.00;;;;;;5099438;28;20228;-87
2022/12/09 00:31:14;;;;;;;25.70;17.27;;;2.70;47.00;;;;;;5115250;27;20196;-87
2022/12/09 00:33:39;;;;;;;26.55;17.48;;;2.70;30.80;;;;;;5108167;28;20792;-86
2022/12/09 00:36:11;;;;;;;27.03;17.13;;;2.70;1.00;;;;;;5101329;28;20245;-86
2022/12/09 00:38:37;;;;;;;21.10;15.70;;;2.60;1.00;;;;;;5101743;28;20244;-87
2022/12/09 00:41:03;;;;;;;29.52;18.77;;;2.60;1.00;;;;;;5097969;28;20558;-88
2022/12/09 00:43:29;;;;;;;27.27;17.23;;;2.60;1.00;;;;;;5109251;28;20801;-86
2022/12/09 00:45:55;;;;;;;35.67;18.42;;;2.60;1.00;;;;;;5107220;28;20234;-87
2022/12/09 00:48:21;;;;;;;26.70;17.00;;;2.50;1.00;;;;;;5106152;28;20179;-88
2022/12/09 00:50:46;;;;;;;28.43;17.93;;;2.50;95.30;;;;;;5100989;28;20671;-87
2022/12/09 00:53:12;;;;;;;30.47;18.40;;;2.40;99.90;;;;;;5107198;28;20184;-87
2022/12/09 00:55:38;;;;;;;23.20;16.88;;;2.40;99.90;;;;;;5092479;28;20746;-86
2022/12/09 00:58:04;;;;;;;30.83;17.77;;;2.40;99.90;;;;;;5105752;28;20187;-87
2022/12/09 01:00:30;;;;;;;31.40;17.98;;;2.30;99.90;;;;;;5099996;28;20769;-87
2022/12/09 01:02:56;;;;;;;34.00;17.90;;;2.30;1.00;;;;;;5109110;28;20270;-87
2022/12/09 01:05:21;;;;;;;26.07;17.37;;;2.30;1.00;;;;;;5095339;28;20283;-87
2022/12/09 01:07:47;;;;;;;30.37;17.83;;;2.30;1.00;;;;;;5098633;28;20180;-86
2022/12/09 01:10:13;;;;;;;29.20;17.80;;;2.30;1.00;;;;;;5101232;28;20434;-87
2022/12/09 01:12:38;;;;;;;29.20;17.23;;;2.30;1.00;;;;;;5101616;28;20471;-87
2022/12/09 01:15:06;;;;;;;24.87;17.20;;;2.20;1.00;;;;;;5090596;27;20200;-87
2022/12/09 01:17:31;;;;;;;34.17;18.98;;;2.20;1.00;;;;;;5104752;28;20689;-88
2022/12/09 01:19:57;;;;;;;28.33;18.00;;;2.20;1.00;;;;;;5106037;27;20203;-86
2022/12/09 01:22:23;;;;;;;39.10;19.13;;;2.20;4.50;;;;;;5103520;28;20180;-87
2022/12/09 01:24:48;;;;;;;29.20;17.73;;;2.20;9.90;;;;;;5104123;28;20182;-87
2022/12/09 01:27:14;;;;;;;31.87;18.10;;;2.20;31.40;;;;;;5113421;28;20203;-87
2022/12/09 01:29:40;;;;;;;31.97;18.63;;;2.20;99.90;;;;;;5114974;28;20627;-86
2022/12/09 01:32:05;;;;;;;33.90;19.03;;;2.20;99.90;;;;;;5103849;28;20841;-86
2022/12/09 01:34:31;;;;;;;29.83;17.20;;;2.20;99.90;;;;;;5097427;28;20192;-87
2022/12/09 01:36:56;;;;;;;30.63;18.27;;;2.10;99.90;;;;;;5101401;28;20586;-87
2022/12/09 01:39:22;;;;;;;42.53;19.37;;;2.10;99.90;;;;;;5107387;28;20193;-86
2022/12/09 01:41:50;;;;;;;36.10;19.20;;;2.10;99.90;;;;;;5093635;28;20188;-88
2022/12/09 01:44:19;;;;;;;33.00;18.27;;;2.10;1.00;;;;;;5098706;28;20302;-87
2022/12/09 01:46:45;;;;;;;32.95;19.17;;;2.20;1.00;;;;;;5105358;28;20199;-87
2022/12/09 01:49:19;;;;;;;27.30;16.55;;;2.20;1.00;;;;;;5105166;28;20179;-87
2022/12/09 01:51:48;;;;;;;27.40;16.13;;;2.20;1.00;;;;;;5102116;28;20195;-87
2022/12/09 01:54:15;;;;;;;26.63;17.90;;;2.20;1.00;;;;;;5104925;28;20329;-86
2022/12/09 01:56:41;;;;;;;28.77;17.52;;;2.30;1.00;;;;;;5108785;28;20214;-87
2022/12/09 01:59:13;;;;;;;23.40;15.17;;;2.30;1.00;;;;;;5096219;28;20183;-88
2022/12/09 02:01:41;;;;;;;29.58;16.70;;;2.30;1.00;;;;;;5093758;28;20530;-87
2022/12/09 02:04:07;;;;;;;33.33;17.85;;;2.40;1.00;;;;;;5096664;28;20209;-87
2022/12/09 02:06:36;;;;;;;28.60;17.50;;;2.40;1.00;;;;;;5109097;28;20200;-87
2022/12/09 02:09:01;;;;;;;29.35;17.13;;;2.40;1.00;;;;;;5104148;28;20254;-87
2022/12/09 02:11:38;;;;;;;33.00;16.17;;;2.50;1.00;;;;;;5095739;28;20321;-87
2022/12/09 02:14:14;;;;;;;27.33;16.33;;;2.50;1.00;;;;;;5095912;28;20175;-87
2022/12/09 02:17:00;;;;;;;24.95;15.75;;;2.50;1.00;;;;;;5108670;28;20681;-87
2022/12/09 02:19:50;;;;;;;26.88;16.83;;;2.60;1.00;;;;;;5096908;28;20236;-87
2022/12/09 02:22:23;;;;;;;29.90;16.00;;;2.60;1.00;;;;;;5092520;28;20575;-87
2022/12/09 02:25:08;;;;;;;28.92;15.48;;;2.60;1.00;;;;;;5102571;28;20187;-87
2022/12/09 02:27:49;;;;;;;28.13;16.15;;;2.60;1.00;;;;;;5104298;28;20202;-88
2022/12/09 02:30:34;;;;;;;23.50;15.65;;;2.60;1.00;;;;;;5099269;28;20190;-87
2022/12/09 02:33:32;;;;;;;25.23;16.05;;;2.60;1.00;;;;;;5096130;28;20180;-87
2022/12/09 02:36:13;;;;;;;29.10;16.52;;;2.60;1.00;;;;;;5097138;28;20284;-87
2022/12/09 02:38:41;;;;;;;27.17;15.40;;;2.60;1.00;;;;;;5100138;28;20187;-87
2022/12/09 02:41:20;;;;;;;26.02;17.35;;;2.60;1.00;;;;;;5102902;28;20196;-87
2022/12/09 02:43:50;;;;;;;29.75;16.50;;;2.60;1.00;;;;;;5099346;28;20779;-86
2022/12/09 02:46:18;;;;;;;31.17;16.80;;;2.60;1.00;;;;;;5094367;28;20204;-87
2022/12/09 02:48:50;;;;;;;24.40;15.50;;;2.60;1.00;;;;;;5106582;28;20232;-87
2022/12/09 02:51:19;;;;;;;29.10;17.58;;;2.60;1.00;;;;;;5106163;28;20616;-87
2022/12/09 02:53:51;;;;;;;29.65;16.00;;;2.60;1.00;;;;;;5096323;28;20186;-86
2022/12/09 02:56:18;;;;;;;24.98;15.80;;;2.60;1.00;;;;;;5104236;28;20199;-87
2022/12/09 02:58:43;;;;;;;37.38;15.93;;;2.60;1.00;;;;;;5111706;28;20179;-87
2022/12/09 03:01:20;;;;;;;30.30;18.00;;;2.60;1.00;;;;;;5108700;28;20218;-87
2022/12/09 03:03:46;;;;;;;24.58;15.85;;;2.70;1.00;;;;;;5110883;28;20274;-87
2022/12/09 03:06:18;;;;;;;27.37;17.10;;;2.60;1.00;;;;;;5098802;28;20633;-87
2022/12/09 03:09:01;;;;;;;22.55;14.32;;;2.70;1.00;;;;;;5104852;28;20446;-86
2022/12/09 03:11:28;;;;;;;25.33;14.90;;;2.70;1.00;;;;;;5110065;28;20190;-87
2022/12/09 03:14:09;;;;;;;19.92;15.25;;;2.80;1.00;;;;;;5106058;28;20190;-87
2022/12/09 03:16:44;;;;;;;25.25;15.05;;;2.80;1.00;;;;;;5104742;28;20252;-87
2022/12/09 03:19:26;;;;;;;26.92;15.40;;;2.80;1.00;;;;;;5102544;28;20176;-87
2022/12/09 03:21:55;;;;;;;23.25;16.08;;;2.80;1.00;;;;;;5104924;28;20183;-87
2022/12/09 03:24:27;;;;;;;22.98;15.27;;;2.90;99.90;;;;;;5099616;28;20608;-87
2022/12/09 03:26:53;;;;;;;32.40;16.90;;;2.90;99.90;;;;;;5104402;28;20207;-88
2022/12/09 03:29:23;;;;;;;29.27;16.67;;;2.90;99.90;;;;;;5105239;28;20183;-87
2022/12/09 03:31:50;;;;;;;30.00;16.50;;;2.80;99.90;;;;;;5107027;28;20438;-86
2022/12/09 03:34:20;;;;;;;30.10;17.13;;;2.80;99.90;;;;;;5103658;28;20211;-87
2022/12/09 03:36:49;;;;;;;25.48;16.63;;;2.80;99.90;;;;;;5107817;27;20211;-87
2022/12/09 03:39:20;;;;;;;27.52;16.45;;;2.80;99.90;;;;;;5103460;28;20184;-87
2022/12/09 03:41:54;;;;;;;26.88;15.40;;;2.80;99.90;;;;;;5098270;28;20206;-87
2022/12/09 03:44:31;;;;;;;24.27;15.40;;;2.80;99.90;;;;;;5107281;28;20191;-88
2022/12/09 03:46:57;;;;;;;26.70;16.50;;;2.60;1.00;;;;;;5108521;28;20209;-85
2022/12/09 03:49:22;;;;;;;27.80;16.83;;;2.50;1.00;;;;;;5102771;27;20626;-87
2022/12/09 03:51:59;;;;;;;30.00;16.50;;;2.50;1.00;;;;;;5101325;28;20240;-87
2022/12/09 03:54:31;;;;;;;32.00;19.23;;;2.30;32.70;;;;;;5102119;28;20211;-87
2022/12/09 03:56:57;;;;;;;34.63;19.15;;;2.30;99.90;;;;;;5110000;28;20199;-88
2022/12/09 03:59:26;;;;;;;34.00;17.42;;;2.20;1.00;;;;;;5111781;28;20559;-86
2022/12/09 04:01:52;;;;;;;31.42;18.50;;;2.20;99.90;;;;;;5100218;28;20671;-87
2022/12/09 04:04:17;;;;;;;34.20;16.10;;;2.20;99.90;;;;;;5097003;28;20204;-87
2022/12/09 04:06:43;;;;;;;33.83;18.77;;;2.10;99.90;;;;;;5108737;28;20206;-88
2022/12/09 04:09:10;;;;;;;34.07;17.83;;;2.10;99.90;;;;;;5099545;28;20195;-87
2022/12/09 04:11:36;;;;;;;39.58;20.10;;;2.10;99.90;;;;;;5103723;28;20971;-87
2022/12/09 04:14:02;;;;;;;46.70;24.90;;;2.00;99.90;;;;;;5100844;28;20188;-87
2022/12/09 04:16:28;;;;;;;39.57;21.80;;;1.90;1.00;;;;;;5098621;28;20211;-87
2022/12/09 04:18:53;;;;;;;35.40;20.10;;;1.90;1.00;;;;;;5108957;28;20462;-87
2022/12/09 04:21:19;;;;;;;35.87;18.90;;;1.80;1.00;;;;;;5106323;28;20512;-87
2022/12/09 04:23:44;;;;;;;35.73;19.60;;;1.80;1.00;;;;;;5102628;28;20681;-87
2022/12/09 04:26:19;;;;;;;34.93;18.30;;;1.80;1.00;;;;;;5092234;28;20210;-87
2022/12/09 04:28:45;;;;;;;27.42;16.95;;;1.90;1.00;;;;;;5108915;28;20198;-87
2022/12/09 04:31:12;;;;;;;33.63;18.73;;;1.90;1.00;;;;;;5110019;28;20654;-87
2022/12/09 04:33:38;;;;;;;27.55;16.88;;;1.90;1.00;;;;;;5094151;28;20671;-87
2022/12/09 04:36:06;;;;;;;33.78;18.30;;;2.00;1.00;;;;;;5097807;28;20250;-87
2022/12/09 04:38:31;;;;;;;28.48;18.23;;;2.00;1.00;;;;;;5106245;27;20248;-87
2022/12/09 04:40:59;;;;;;;35.20;19.00;;;2.00;1.00;;;;;;5106254;28;20204;-86
2022/12/09 04:43:24;;;;;;;30.63;17.42;;;2.00;1.00;;;;;;5102538;28;20647;-85
2022/12/09 04:45:50;;;;;;;32.50;18.63;;;2.10;1.00;;;;;;5113089;28;20225;-87
2022/12/09 04:48:15;;;;;;;33.83;16.43;;;2.10;1.00;;;;;;5113899;27;20238;-86
2022/12/09 04:50:40;;;;;;;30.43;16.27;;;2.20;1.00;;;;;;5105035;27;20203;-86
2022/12/09 04:53:06;;;;;;;29.90;17.87;;;2.30;1.00;;;;;;5106239;28;20192;-87
2022/12/09 04:55:31;;;;;;;23.23;14.00;;;2.40;1.00;;;;;;5106370;28;20200;-87
2022/12/09 04:57:57;;;;;;;27.93;15.90;;;2.40;1.00;;;;;;5104778;28;20192;-87
2022/12/09 05:00:23;;;;;;;23.40;14.67;;;2.50;1.00;;;;;;5099164;28;20619;-87
2022/12/09 05:02:48;;;;;;;27.47;16.13;;;2.60;1.00;;;;;;5107998;28;20270;-87
2022/12/09 05:05:14;;;;;;;27.90;15.47;;;2.70;1.00;;;;;;5097697;28;20211;-86
2022/12/09 05:07:39;;;;;;;33.10;17.30;;;2.70;99.90;;;;;;5104064;28;20183;-87
2022/12/09 05:10:06;;;;;;;31.50;16.53;;;2.80;99.90;;;;;;5099126;28;20198;-87
2022/12/09 05:12:32;;;;;;;29.65;14.88;;;2.80;99.90;;;;;;5105650;28;20195;-88
2022/12/09 05:14:58;;;;;;;24.25;15.40;;;2.80;99.90;;;;;;5121469;28;20199;-88
2022/12/09 05:17:23;;;;;;;27.80;16.00;;;2.90;99.90;;;;;;5119246;28;20190;-88
2022/12/09 05:19:50;;;;;;;25.10;16.13;;;2.90;99.90;;;;;;5104624;28;20298;-87
2022/12/09 05:22:17;;;;;;;24.50;16.73;;;3.00;89.20;;;;;;5106076;27;20494;-87
2022/12/09 05:24:43;;;;;;;26.63;14.80;;;3.00;73.90;;;;;;5101833;28;20859;-87
2022/12/09 05:27:10;;;;;;;25.13;15.65;;;3.10;9.00;;;;;;5105348;28;20175;-87
2022/12/09 05:29:36;;;;;;;25.48;17.17;;;3.10;1.00;;;;;;5097172;28;20184;-87
2022/12/09 05:32:01;;;;;;;27.93;15.53;;;3.10;1.00;;;;;;5095833;28;20657;-87
2022/12/09 05:34:27;;;;;;;25.90;14.27;;;3.10;1.00;;;;;;5093245;28;20204;-87
2022/12/09 05:36:52;;;;;;;29.50;18.03;;;3.10;1.00;;;;;;5099557;28;20217;-88
2022/12/09 05:39:18;;;;;;;36.33;18.57;;;3.20;1.00;;;;;;5091574;28;20184;-87
2022/12/09 05:41:45;;;;;;;42.00;18.67;;;3.20;1.00;;;;;;5100451;28;20203;-87
2022/12/09 05:44:12;;;;;;;36.55;22.30;;;3.30;1.00;;;;;;5097023;28;20186;-87
2022/12/09 05:46:37;;;;;;;34.22;19.55;;;3.30;99.90;;;;;;5098518;28;20262;-87
2022/12/09 05:49:03;;;;;;;31.20;18.53;;;3.30;99.90;;;;;;5100890;28;20227;-87
2022/12/09 05:51:29;;;;;;;29.60;15.27;;;3.30;99.90;;;;;;5109314;28;20689;-86
2022/12/09 05:53:59;;;;;;;29.10;16.13;;;3.30;99.90;;;;;;5098111;28;20180;-87
2022/12/09 05:56:25;;;;;;;27.27;15.18;;;3.30;99.90;;;;;;5097766;28;20238;-87
2022/12/09 05:58:51;;;;;;;25.65;16.13;;;3.40;99.90;;;;;;5099122;28;20548;-87
2022/12/09 06:01:17;;;;;;;24.33;14.87;;;3.40;99.90;;;;;;5104240;28;20218;-87
2022/12/09 06:03:45;;;;;;;30.30;16.47;;;3.40;99.90;;;;;;5102307;28;20203;-87
2022/12/09 06:06:13;;;;;;;24.20;15.65;;;3.50;99.90;;;;;;5103826;28;20641;-88
2022/12/09 06:08:39;;;;;;;28.83;17.75;;;3.50;99.90;;;;;;5091582;28;20188;-88
2022/12/09 06:11:14;;;;;;;28.35;16.63;;;3.50;38.00;;;;;;5105193;28;20180;-88
2022/12/09 06:13:39;;;;;;;22.80;16.08;;;3.40;49.80;;;;;;5100184;28;20235;-87
2022/12/09 06:16:06;;;;;;;24.67;16.83;;;3.50;99.90;;;;;;5102788;28;20199;-87
2022/12/09 06:18:32;;;;;;;28.48;15.52;;;3.50;99.90;;;;;;5091302;28;20202;-87
2022/12/09 06:20:57;;;;;;;26.30;14.30;;;3.50;98.20;;;;;;5100344;28;20204;-87
2022/12/09 06:23:23;;;;;;;26.80;16.53;;;3.50;49.90;;;;;;5103453;28;20426;-87
2022/12/09 06:25:48;;;;;;;27.20;17.30;;;3.50;22.20;;;;;;5098378;28;20203;-88
2022/12/09 06:28:14;;;;;;;27.53;16.23;;;3.50;99.90;;;;;;5099768;28;20171;-87
2022/12/09 06:30:39;;;;;;;27.30;16.20;;;3.60;64.30;;;;;;5094256;28;20197;-87
2022/12/09 06:33:05;;;;;;;25.83;15.97;;;3.60;1.00;;;;;;5102712;28;20556;-87
2022/12/09 06:35:31;;;;;;;24.43;15.33;;;3.60;1.00;;;;;;5104349;28;20309;-87
2022/12/09 06:37:56;;;;;;;28.60;16.83;;;3.60;1.00;;;;;;5105970;28;20238;-88
2022/12/09 06:40:22;;;;;;;32.07;19.97;;;3.60;1.00;;;;;;5111501;28;20617;-86
2022/12/09 06:42:50;;;;;;;36.10;18.70;;;3.60;99.90;;;;;;5109979;28;20179;-88
2022/12/09 06:45:17;;;;;;;26.25;17.45;;;3.60;99.90;;;;;;5104048;28;20191;-87
2022/12/09 06:47:43;;;;;;;27.42;16.85;;;3.60;99.90;;;;;;5098614;28;20184;-87
2022/12/09 06:50:09;;;;;;;29.20;18.53;;;3.60;1.00;;;;;;5103784;28;20202;-88
2022/12/09 06:52:36;;;;;;;30.07;17.87;;;3.60;1.00;;;;;;5095439;27;20184;-88
2022/12/09 06:55:02;;;;;;;27.50;15.75;;;3.60;1.00;;;;;;5110648;28;20457;-88
2022/12/09 06:57:28;;;;;;;31.95;15.88;;;3.70;1.00;;;;;;5103214;28;20641;-87
2022/12/09 06:59:53;;;;;;;29.83;16.23;;;3.70;1.00;;;;;;5109183;28;20243;-87
2022/12/09 07:02:19;;;;;;;24.17;15.87;;;3.70;1.00;;;;;;5101514;28;20261;-88
2022/12/09 07:04:44;;;;;;;36.43;15.60;;;3.80;1.00;;;;;;5101386;28;20189;-87
2022/12/09 07:07:10;;;;;;;32.60;15.50;;;3.80;1.00;;;;;;5104987;28;20194;-87
2022/12/09 07:09:36;;;;;;;26.02;16.27;;;3.70;99.90;;;;;;5099203;28;20190;-87
2022/12/09 07:12:01;;;;;;;33.67;16.13;;;3.70;99.90;;;;;;5101482;28;20176;-87
2022/12/09 07:14:27;;;;;;;33.70;16.57;;;3.60;99.90;;;;;;5103223;28;20665;-86
2022/12/09 07:16:52;;;;;;;28.00;16.70;;;3.60;99.90;;;;;;5105093;28;20629;-85
2022/12/09 07:19:21;;;;;;;29.50;16.90;;;3.60;99.90;;;;;;5109863;28;20609;-85
2022/12/09 07:21:47;;;;;;;33.25;17.88;;;3.60;1.00;;;;;;5104492;28;20749;-85
2022/12/09 07:24:13;;;;;;;32.47;17.17;;;3.70;49.50;;;;;;5098635;28;20296;-87
2022/12/09 07:26:38;;;;;;;30.03;16.10;;;3.80;99.90;;;;;;5096990;28;20216;-85
2022/12/09 07:29:05;;;;;;;30.57;16.83;;;3.90;35.10;;;;;;5105816;28;20211;-86
2022/12/09 07:31:31;;;;;;;31.65;16.27;;;3.90;1.00;;;;;;5104208;28;20198;-86
2022/12/09 07:33:57;;;;;;;25.33;17.00;;;4.00;1.00;;;;;;5102561;28;20566;-85
2022/12/09 07:36:25;;;;;;;27.10;15.98;;;4.00;1.00;;;;;;5102753;28;20204;-85
2022/12/09 07:38:59;;;;;;;23.58;15.93;;;4.10;1.00;;;;;;5102852;28;20192;-85
2022/12/09 07:41:25;;;;;;;30.63;18.17;;;4.10;99.90;;;;;;5108492;28;20222;-86
2022/12/09 07:43:51;;;;;;;29.30;17.80;;;4.10;99.90;;;;;;5101153;28;20180;-85
2022/12/09 07:46:18;;;;;;;27.67;15.53;;;4.20;99.90;;;;;;5102001;28;20203;-85
2022/12/09 07:48:44;;;;;;;24.60;15.95;;;4.30;99.90;;;;;;5098967;28;20184;-85
2022/12/09 07:51:10;;;;;;;29.83;17.30;;;4.30;99.90;;;;;;5107683;28;20192;-86
2022/12/09 07:53:36;;;;;;;34.33;16.77;;;4.40;1.00;;;;;;5108222;28;20444;-85
2022/12/09 07:56:05;;;;;;;41.53;20.83;;;4.40;1.00;;;;;;5102457;28;20208;-86
2022/12/09 07:58:31;;;;;;;48.08;18.80;;;4.40;1.00;;;;;;5106473;28;20221;-86
2022/12/09 08:01:03;;;;;;;36.75;18.48;;;4.40;1.00;;;;;;5103303;28;20218;-86
2022/12/09 08:03:28;;;;;;;38.72;16.95;;;4.50;1.00;;;;;;5095908;28;20191;-85
2022/12/09 08:05:54;;;;;;;31.63;17.93;;;4.50;1.00;;;;;;5107792;28;20196;-86
2022/12/09 08:08:19;;;;;;;29.00;17.77;;;4.60;99.90;;;;;;5098876;28;20182;-85
2022/12/09 08:10:45;;;;;;;29.00;17.90;;;4.50;66.40;;;;;;5101319;28;20203;-86
2022/12/09 08:13:11;;;;;;;44.53;19.50;;;4.60;32.40;;;;;;5102020;28;20186;-85
2022/12/09 08:15:37;;;;;;;32.42;18.58;;;4.60;99.90;;;;;;5095932;28;20454;-85
2022/12/09 08:18:03;;;;;;;29.27;18.60;;;4.70;31.30;;;;;;5104676;28;20256;-85
2022/12/09 08:20:29;;;;;;;35.13;17.67;;;4.70;1.00;;;;;;5093332;27;22466;-85
2022/12/09 08:22:54;;;;;;;30.40;15.70;;;4.80;1.00;;;;;;5104874;28;20172;-86
2022/12/09 08:25:20;;;;;;;29.83;16.60;;;4.90;99.90;;;;;;5103278;28;20461;-86
2022/12/09 08:27:45;;;;;;;28.13;15.83;;;4.90;1.00;;;;;;5098320;28;20184;-86
2022/12/09 08:30:11;;;;;;;23.83;16.10;;;5.00;1.00;;;;;;5097738;28;20556;-86
2022/12/09 08:32:37;;;;;;;24.23;15.97;;;5.00;1.00;;;;;;5097317;28;20183;-86
2022/12/09 08:35:02;;;;;;;23.40;14.80;;;5.00;1.00;;;;;;5098427;28;20454;-85
2022/12/09 08:37:28;;;;;;;26.90;17.00;;;5.10;99.90;;;;;;5101211;28;20192;-85
2022/12/09 08:39:53;;;;;;;25.17;15.30;;;5.10;99.90;;;;;;5098383;28;20555;-85
2022/12/09 08:42:19;;;;;;;24.07;14.73;;;5.10;1.00;;;;;;5096617;28;20297;-85
2022/12/09 08:44:45;;;;;;;29.90;17.90;;;5.10;1.00;;;;;;5101700;28;20183;-86
2022/12/09 08:47:10;;;;;;;30.73;16.23;;;5.10;1.00;;;;;;5100440;28;20253;-85
2022/12/09 08:49:36;;;;;;;30.10;18.30;;;5.20;1.00;;;;;;5098444;28;20256;-85
2022/12/09 08:52:01;;;;;;;40.73;18.20;;;5.20;1.00;;;;;;5118214;27;20571;-84
2022/12/09 08:54:27;;;;;;;33.17;19.57;;;5.30;1.00;;;;;;5100089;28;20186;-85
2022/12/09 08:56:54;;;;;;;29.40;18.97;;;5.40;1.00;;;;;;5099026;28;20208;-85
2022/12/09 08:59:20;;;;;;;32.38;18.20;;;5.50;1.00;;;;;;5128951;27;20438;-86
2022/12/09 09:01:46;;;;;;;30.20;17.40;;;5.50;99.90;;;;;;5122914;28;20207;-84
2022/12/09 09:04:14;;;;;;;29.90;18.80;;;5.60;99.90;;;;;;5113743;28;20187;-85
2022/12/09 09:06:42;;;;;;;31.83;17.05;;;5.70;99.90;;;;;;5097765;28;20203;-85
2022/12/09 09:09:10;;;;;;;35.25;19.75;;;5.80;99.90;;;;;;5092007;28;20187;-86
2022/12/09 09:11:36;;;;;;;31.20;18.88;;;5.90;1.00;;;;;;5104031;28;20279;-84
2022/12/09 09:14:03;;;;;;;34.33;19.23;;;6.00;1.00;;;;;;5107401;28;20278;-85
2022/12/09 09:16:29;;;;;;;32.42;18.10;;;6.10;1.00;;;;;;5097007;28;20460;-85
2022/12/09 09:18:54;;;;;;;31.93;18.23;;;6.10;1.00;;;;;;5096758;28;20846;-85
2022/12/09 09:21:22;;;;;;;26.10;16.27;;;6.10;1.00;;;;;;5103928;28;20211;-85
2022/12/09 09:23:48;;;;;;;27.55;16.70;;;6.20;1.00;;;;;;5107889;28;20266;-85
2022/12/09 09:26:17;;;;;;;35.38;18.08;;;6.30;1.00;;;;;;5105563;28;20198;-84
2022/12/09 09:28:43;;;;;;;28.75;17.95;;;6.30;99.90;;;;;;5103952;28;20183;-85
2022/12/09 09:31:12;;;;;;;30.88;17.25;;;6.30;99.90;;;;;;5099139;28;20663;-84
2022/12/09 09:33:38;;;;;;;30.02;18.48;;;6.30;99.90;;;;;;5092414;28;20184;-85
2022/12/09 09:36:06;;;;;;;24.40;16.80;;;6.30;99.90;;;;;;5102404;28;20700;-85
2022/12/09 09:38:32;;;;;;;28.52;17.73;;;6.30;99.90;;;;;;5100880;28;20180;-85
2022/12/09 09:41:00;;;;;;;28.27;16.65;;;6.30;99.90;;;;;;5096512;28;20219;-84
2022/12/09 09:43:32;;;;;;;26.38;16.52;;;6.30;99.90;;;;;;5094128;28;20540;-84
2022/12/09 09:45:58;;;;;;;29.67;16.90;;;6.30;99.90;;;;;;5097010;28;20204;-84
2022/12/09 09:48:34;;;;;;;25.67;16.23;;;6.20;99.90;;;;;;5098158;28;20176;-84
2022/12/09 09:51:19;;;;;;;25.10;17.08;;;6.30;99.90;;;;;;5101490;28;20306;-84
2022/12/09 09:53:49;;;;;;;25.00;15.65;;;6.60;99.90;;;;;;5092437;28;20588;-84
2022/12/09 09:56:44;;;;;;;29.33;16.00;;;6.80;99.90;;;;;;5092738;28;20292;-83
2022/12/09 09:59:09;;;;;;;27.00;16.67;;;7.10;99.90;;;;;;5103217;28;20616;-85
2022/12/09 10:01:36;;;;;;;30.47;18.50;;;7.50;1.00;;;;;;5097373;28;20302;-85
2022/12/09 10:04:16;;;;;;;27.83;17.33;;;7.90;1.00;;;;;;5097399;28;20228;-84
2022/12/09 10:07:05;;;;;;;27.33;16.53;;;8.50;1.00;;;;;;5100458;28;20521;-85
2022/12/09 10:09:39;;;;;;;26.77;17.33;;;8.90;1.00;;;;;;5097169;28;20521;-85
2022/12/09 10:12:42;;;;;;;26.10;17.77;;;9.10;1.00;;;;;;5102497;28;20974;-84
2022/12/09 10:15:28;;;;;;;25.33;16.67;;;9.40;1.00;;;;;;5091213;28;20461;-85
2022/12/09 10:18:16;;;;;;;26.57;16.83;;;9.70;99.90;;;;;;5099749;28;20481;-84
2022/12/09 10:20:42;;;;;;;23.93;16.87;;;9.90;99.90;;;;;;5093315;28;20556;-85
2022/12/09 10:23:13;;;;;;;31.20;16.80;;;10.00;99.90;;;;;;5091976;28;21009;-86
2022/12/09 10:25:49;;;;;;;27.50;17.83;;;10.20;99.90;;;;;;5101542;28;20480;-85
2022/12/09 10:28:29;;;;;;;25.90;16.93;;;10.20;99.90;;;;;;5102151;28;20802;-85
2022/12/09 10:30:55;;;;;;;23.77;16.30;;;10.30;99.90;;;;;;5094677;28;20444;-85
2022/12/09 10:33:32;;;;;;;29.80;17.03;;;10.30;99.90;;;;;;5093063;28;20902;-84
2022/12/09 10:35:58;;;;;;;31.27;16.90;;;10.50;99.90;;;;;;5097097;28;20460;-85
2022/12/09 10:38:25;;;;;;;25.83;17.10;;;10.80;99.90;;;;;;5098767;28;20833;-85
2022/12/09 10:41:01;;;;;;;25.70;16.23;;;10.80;99.90;;;;;;5094044;28;20323;-84
2022/12/09 10:43:42;;;;;;;25.57;17.27;;;10.80;99.90;;;;;;5101574;28;20437;-84
2022/12/09 10:46:17;;;;;;;32.03;18.23;;;10.70;99.90;;;;;;5097339;28;20483;-85
2022/12/09 10:48:45;;;;;;;29.30;19.83;;;10.50;99.90;;;;;;5103617;28;20470;-84
2022/12/09 10:51:30;;;;;;;31.73;18.87;;;10.30;99.90;;;;;;5094781;28;20454;-85
2022/12/09 10:54:09;;;;;;;27.80;18.30;;;10.10;99.90;;;;;;5101076;28;20490;-84
2022/12/09 10:56:38;;;;;;;26.80;18.70;;;9.80;99.90;;;;;;5091155;28;20453;-85
2022/12/09 10:59:22;;;;;;;33.37;19.53;;;9.50;99.90;;;;;;5101334;28;20437;-85
2022/12/09 11:01:57;;;;;;;33.17;19.50;;;9.10;99.90;;;;;;5100381;28;20983;-85
2022/12/09 11:04:31;;;;;;;32.73;17.40;;;8.70;99.90;;;;;;5100233;28;20434;-85
2022/12/09 11:07:01;;;;;;;32.53;21.15;;;8.50;99.90;;;;;;5094228;28;20457;-85
2022/12/09 11:09:30;;;;;;;31.15;18.60;;;8.30;99.90;;;;;;5100983;28;20180;-85
2022/12/09 11:11:56;;;;;;;26.83;16.30;;;8.20;99.90;;;;;;5118517;28;20221;-85
2022/12/09 11:14:24;;;;;;;26.40;17.40;;;8.10;99.90;;;;;;5100188;28;20434;-85
2022/12/09 11:16:57;;;;;;;29.00;17.52;;;8.00;99.90;;;;;;5104951;28;20484;-86
2022/12/09 11:19:32;;;;;;;28.33;17.92;;;7.90;99.90;;;;;;5103843;28;20207;-85
2022/12/09 11:22:21;;;;;;;24.83;16.30;;;7.80;99.90;;;;;;5097091;28;20211;-85
2022/12/09 11:24:46;;;;;;;32.35;14.63;;;7.60;99.90;;;;;;5106296;28;20185;-86
2022/12/09 11:27:32;;;;;;;29.67;16.13;;;7.50;99.90;;;;;;5100512;28;20177;-87
2022/12/09 11:30:19;;;;;;;28.47;15.60;;;7.50;99.90;;;;;;5092479;28;20486;-89
2022/12/09 11:33:07;;;;;;;23.30;14.65;;;7.50;99.90;;;;;;5095008;28;20433;-89
2022/12/09 11:35:37;;;;;;;24.67;15.48;;;7.50;99.90;;;;;;5103893;28;20605;-86
2022/12/09 11:38:20;;;;;;;24.70;15.47;;;7.60;99.90;;;;;;5104743;28;20225;-87
2022/12/09 11:41:10;;;;;;;42.58;23.80;;;7.60;99.90;;;;;;5099907;28;21009;-86
2022/12/09 11:43:49;;;;;;;40.88;23.23;;;7.70;99.90;;;;;;5096236;28;20199;-87
2022/12/09 11:46:24;;;;;;;29.08;18.00;;;7.70;99.90;;;;;;5097259;28;20286;-87
2022/12/09 11:48:57;;;;;;;26.77;16.92;;;7.70;99.90;;;;;;5104810;28;20190;-87
2022/12/09 11:51:33;;;;;;;27.80;17.20;;;7.80;99.90;;;;;;5103146;28;20231;-86
2022/12/09 11:54:11;;;;;;;28.05;16.60;;;7.80;99.90;;;;;;5105878;28;20964;-87
2022/12/09 11:56:39;;;;;;;28.63;17.88;;;7.80;99.90;;;;;;5100384;28;20203;-86
2022/12/09 11:59:21;;;;;;;29.95;15.18;;;7.90;99.90;;;;;;5109986;28;20653;-87
2022/12/09 12:01:49;;;;;;;21.40;14.95;;;7.90;99.90;;;;;;5099309;28;20214;-88
2022/12/09 12:04:21;;;;;;;21.92;14.73;;;8.00;99.90;;;;;;5101968;27;20208;-87
2022/12/09 12:06:56;;;;;;;28.43;16.37;;;8.00;99.90;;;;;;5098512;28;20203;-87
2022/12/09 12:09:40;;;;;;;26.52;16.25;;;8.10;99.90;;;;;;5104614;28;20493;-87
2022/12/09 12:12:17;;;;;;;23.27;14.55;;;8.20;99.90;;;;;;5095175;28;20670;-87
2022/12/09 12:14:43;;;;;;;23.27;14.20;;;8.30;99.90;;;;;;5103581;27;20183;-86
2022/12/09 12:17:29;;;;;;;21.40;12.77;;;8.50;99.90;;;;;;5104262;28;20481;-86
2022/12/09 12:19:56;;;;;;;28.87;14.23;;;8.60;99.90;;;;;;5098768;28;20445;-86
2022/12/09 12:22:56;;;;;;;25.07;14.47;;;8.70;99.90;;;;;;5099225;28;20422;-85
2022/12/09 12:25:43;;;;;;;21.20;12.60;;;8.70;99.90;;;;;;5097680;28;20876;-86
2022/12/09 12:28:21;;;;;;;23.37;14.13;;;8.60;99.90;;;;;;5099178;28;20541;-86
2022/12/09 12:31:05;;;;;;;25.80;15.23;;;8.40;99.90;;;;;;5097800;28;20499;-86
2022/12/09 12:33:49;;;;;;;25.30;14.82;;;8.30;99.90;;;;;;5094739;27;20437;-85
2022/12/09 12:36:40;;;;;;;27.58;14.25;;;8.10;99.90;;;;;;5096398;28;20203;-86
2022/12/09 12:39:27;;;;;;;32.50;16.55;;;7.80;99.90;;;;;;5101541;28;20285;-85
2022/12/09 12:42:12;;;;;;;30.58;16.58;;;7.60;99.90;;;;;;5097638;28;20259;-86
2022/12/09 12:48:00;;;;;;;31.80;16.90;;;7.50;99.90;;;;;;5119760;28;20236;-86
2022/12/09 12:50:42;;;;;;;25.95;15.60;;;7.50;99.90;;;;;;5115615;28;20790;-86
2022/12/09 12:53:07;;;;;;;24.60;15.18;;;7.40;99.90;;;;;;5101790;28;20190;-85
2022/12/09 12:56:04;;;;;;;20.93;15.00;;;7.30;99.90;;;;;;5099885;28;20291;-86
2022/12/09 12:58:39;;;;;;;22.30;13.95;;;7.30;99.90;;;;;;5102969;28;20550;-86